createdAt,value
2019-03-18T00:00:48.009Z,0.3
2019-03-18T00:02:00.265Z,0.3
2019-03-18T00:03:12.464Z,0.4
2019-03-18T00:04:24.065Z,0.3
2019-03-18T00:05:36.852Z,0.4
2019-03-18T00:06:49.045Z,0.4
2019-03-18T00:08:01.024Z,0.3
2019-03-18T00:09:13.432Z,0.3
2019-03-18T00:10:25.064Z,0.4
2019-03-18T00:11:37.814Z,0.3
2019-03-18T00:12:50.011Z,0.4
2019-03-18T00:14:02.203Z,0.3
2019-03-18T00:15:14.402Z,0.3
2019-03-18T00:16:26.601Z,0.5
2019-03-18T00:17:38.792Z,0.4
2019-03-18T00:18:50.099Z,0.3
2019-03-18T00:20:03.176Z,0.5
2019-03-18T00:21:15.375Z,0.4
2019-03-18T00:22:27.563Z,0.4
2019-03-18T00:23:39.756Z,0.4
2019-03-18T00:24:51.954Z,0.3
2019-03-18T00:26:04.150Z,0.5
2019-03-18T00:27:16.349Z,0.3
2019-03-18T00:28:28.535Z,0.3
2019-03-18T00:29:40.806Z,0.3
2019-03-18T00:30:52.918Z,0.3
2019-03-18T00:32:05.011Z,0.3
2019-03-18T00:33:17.308Z,0.4
2019-03-18T00:34:29.504Z,0.4
2019-03-18T00:35:41.703Z,0.3
2019-03-18T00:36:54.043Z,0.4
2019-03-18T00:38:06.083Z,0.3
2019-03-18T00:39:18.279Z,0.4
2019-03-18T00:40:30.472Z,0.4
2019-03-18T00:41:42.664Z,0.3
2019-03-18T00:42:54.863Z,0.4
2019-03-18T00:44:07.061Z,0.5
2019-03-18T00:45:19.248Z,0.4
2019-03-18T00:46:31.440Z,0.4
2019-03-18T00:47:43.639Z,0.3
2019-03-18T00:48:55.833Z,0.4
2019-03-18T00:50:08.020Z,0.4
2019-03-18T00:51:20.219Z,0.3
2019-03-18T00:52:32.417Z,0.3
2019-03-18T00:53:44.608Z,0.3
2019-03-18T00:54:56.800Z,0.4
2019-03-18T00:56:09.001Z,0.3
2019-03-18T00:57:21.198Z,0.4
2019-03-18T00:58:33.390Z,0.4
2019-03-18T00:59:45.576Z,0.3
2019-03-18T01:00:57.780Z,0.4
2019-03-18T01:02:09.965Z,0.3
2019-03-18T01:03:22.169Z,0.4
2019-03-18T01:04:34.353Z,0.3
2019-03-18T01:05:46.055Z,0.3
2019-03-18T01:06:58.850Z,0.3
2019-03-18T01:08:10.933Z,0.3
2019-03-18T01:09:23.132Z,0.3
2019-03-18T01:10:35.322Z,0.3
2019-03-18T01:11:47.522Z,0.4
2019-03-18T01:12:59.712Z,0.3
2019-03-18T01:14:12.006Z,0.4
2019-03-18T01:15:24.098Z,0.3
2019-03-18T01:16:36.294Z,0.4
2019-03-18T01:17:48.491Z,0.3
2019-03-18T01:19:00.677Z,0.3
2019-03-18T01:20:12.870Z,0.4
2019-03-18T01:21:25.080Z,0.3
2019-03-18T01:22:37.257Z,0.4
2019-03-18T01:23:49.455Z,0.3
2019-03-18T01:25:01.651Z,0.3
2019-03-18T01:26:13.084Z,0.3
2019-03-18T01:27:26.091Z,0.4
2019-03-18T01:28:38.234Z,0.3
2019-03-18T01:29:50.435Z,0.4
2019-03-18T01:31:02.623Z,0.3
2019-03-18T01:32:14.811Z,0.3
2019-03-18T01:33:27.013Z,0.3
2019-03-18T01:34:39.020Z,0.3
2019-03-18T01:35:51.398Z,0.3
2019-03-18T01:37:03.598Z,0.4
2019-03-18T01:38:15.783Z,0.3
2019-03-18T01:39:27.979Z,0.4
2019-03-18T01:40:40.179Z,0.4
2019-03-18T01:41:52.368Z,0.3
2019-03-18T01:43:04.568Z,0.4
2019-03-18T01:44:16.755Z,0.4
2019-03-18T01:45:28.952Z,0.3
2019-03-18T01:46:41.015Z,0.4
2019-03-18T01:47:53.341Z,0.3
2019-03-18T01:49:05.053Z,0.3
2019-03-18T01:50:17.721Z,0.3
2019-03-18T01:51:29.916Z,0.3
2019-03-18T01:52:42.259Z,0.2
2019-03-18T01:53:54.306Z,0.4
2019-03-18T01:55:06.496Z,0.3
2019-03-18T01:56:18.696Z,0.3
2019-03-18T01:57:30.088Z,0.3
2019-03-18T01:58:43.085Z,0.2
2019-03-18T02:01:07.478Z,0.4
2019-03-18T02:02:19.667Z,0.4
2019-03-18T02:03:31.856Z,0.3
2019-03-18T02:04:44.048Z,0.3
2019-03-18T02:05:56.247Z,0.4
2019-03-18T02:07:08.052Z,0.4
2019-03-18T02:08:20.644Z,0.3
2019-03-18T02:09:32.831Z,0.3
2019-03-18T02:10:45.026Z,0.4
2019-03-18T02:11:57.212Z,0.3
2019-03-18T02:13:09.041Z,0.4
2019-03-18T02:14:21.601Z,0.3
2019-03-18T02:15:33.796Z,0.3
2019-03-18T02:16:45.994Z,0.4
2019-03-18T02:17:58.184Z,0.4
2019-03-18T02:19:10.386Z,0.4
2019-03-18T02:20:22.575Z,0.3
2019-03-18T02:21:34.077Z,0.4
2019-03-18T02:22:46.961Z,0.4
2019-03-18T02:23:59.154Z,0.4
2019-03-18T02:25:11.343Z,0.4
2019-03-18T02:26:23.540Z,0.3
2019-03-18T02:27:35.756Z,0.4
2019-03-18T02:28:47.938Z,0.3
2019-03-18T02:30:00.210Z,0.5
2019-03-18T02:31:12.318Z,0.4
2019-03-18T02:32:24.513Z,0.3
2019-03-18T02:33:36.711Z,0.3
2019-03-18T02:34:48.896Z,0.4
2019-03-18T02:36:01.110Z,0.3
2019-03-18T02:37:13.291Z,0.4
2019-03-18T02:38:25.489Z,0.4
2019-03-18T02:39:37.674Z,0.4
2019-03-18T02:40:49.876Z,0.4
2019-03-18T02:42:02.063Z,0.4
2019-03-18T02:43:14.257Z,0.3
2019-03-18T02:44:26.045Z,0.4
2019-03-18T02:45:38.649Z,0.3
2019-03-18T02:46:50.840Z,0.4
2019-03-18T02:48:03.031Z,0.3
2019-03-18T02:49:15.022Z,0.5
2019-03-18T02:50:27.423Z,0.3
2019-03-18T02:51:39.619Z,0.4
2019-03-18T02:52:51.815Z,0.3
2019-03-18T02:54:04.000Z,0.3
2019-03-18T02:55:16.193Z,0.3
2019-03-18T02:56:28.394Z,0.4
2019-03-18T02:57:40.580Z,0.3
2019-03-18T02:58:52.774Z,0.4
2019-03-18T03:00:04.971Z,0.5
2019-03-18T03:01:17.166Z,0.4
2019-03-18T03:02:29.355Z,0.4
2019-03-18T03:03:41.553Z,0.4
2019-03-18T03:04:53.748Z,0.3
2019-03-18T03:06:05.945Z,0.3
2019-03-18T03:07:18.137Z,0.3
2019-03-18T03:08:30.338Z,0.3
2019-03-18T03:09:42.518Z,0.4
2019-03-18T03:10:54.711Z,0.4
2019-03-18T03:12:06.905Z,0.2
2019-03-18T03:13:19.106Z,0.4
2019-03-18T03:14:31.306Z,0.4
2019-03-18T03:15:43.049Z,0.3
2019-03-18T03:16:55.684Z,0.4
2019-03-18T03:18:07.881Z,0.3
2019-03-18T03:19:20.075Z,0.3
2019-03-18T03:20:32.026Z,0.3
2019-03-18T03:21:44.460Z,0.3
2019-03-18T03:22:56.658Z,0.4
2019-03-18T03:24:08.859Z,0.4
2019-03-18T03:25:21.046Z,0.4
2019-03-18T03:26:33.233Z,0.4
2019-03-18T03:27:45.431Z,0.4
2019-03-18T03:28:57.626Z,0.4
2019-03-18T03:30:09.821Z,0.4
2019-03-18T03:31:22.018Z,0.3
2019-03-18T03:32:34.206Z,0.4
2019-03-18T03:33:46.407Z,0.3
2019-03-18T03:34:58.600Z,0.3
2019-03-18T03:36:10.782Z,0.3
2019-03-18T03:37:22.984Z,0.3
2019-03-18T03:38:35.177Z,0.4
2019-03-18T03:39:47.370Z,0.3
2019-03-18T03:40:59.561Z,0.3
2019-03-18T03:42:11.763Z,0.2
2019-03-18T03:43:23.957Z,0.3
2019-03-18T03:44:36.141Z,0.3
2019-03-18T03:45:48.363Z,0.3
2019-03-18T03:47:00.535Z,0.3
2019-03-18T03:48:12.729Z,0.3
2019-03-18T03:49:24.925Z,0.4
2019-03-18T03:50:37.115Z,0.4
2019-03-18T03:51:49.313Z,0.4
2019-03-18T03:53:01.509Z,0.3
2019-03-18T03:54:13.696Z,0.4
2019-03-18T03:55:25.887Z,0.3
2019-03-18T03:56:38.000Z,0.4
2019-03-18T03:57:50.273Z,0.4
2019-03-18T03:59:02.472Z,0.4
2019-03-18T04:00:14.668Z,0.3
2019-03-18T04:01:26.863Z,0.3
2019-03-18T04:02:39.083Z,0.3
2019-03-18T04:03:51.243Z,0.3
2019-03-18T04:05:03.438Z,0.3
2019-03-18T04:06:15.638Z,0.3
2019-03-18T04:07:27.844Z,0.4
2019-03-18T04:08:40.292Z,0.3
2019-03-18T04:09:52.217Z,0.3
2019-03-18T04:11:04.421Z,0.3
2019-03-18T04:12:16.605Z,0.3
2019-03-18T04:13:28.802Z,0.3
2019-03-18T04:14:41.001Z,0.3
2019-03-18T04:15:53.189Z,0.3
2019-03-18T04:17:05.385Z,0.4
2019-03-18T04:18:17.583Z,0.3
2019-03-18T04:19:29.077Z,0.3
2019-03-18T04:20:41.980Z,0.3
2019-03-18T04:21:54.155Z,0.4
2019-03-18T04:23:06.353Z,0.4
2019-03-18T04:24:18.547Z,0.4
2019-03-18T04:25:30.741Z,0.4
2019-03-18T04:26:42.933Z,0.3
2019-03-18T04:27:55.127Z,0.3
2019-03-18T04:29:07.330Z,0.4
2019-03-18T04:30:19.522Z,0.4
2019-03-18T04:31:31.071Z,0.3
2019-03-18T04:32:43.903Z,0.3
2019-03-18T04:33:56.000Z,0.3
2019-03-18T04:35:08.297Z,0.3
2019-03-18T04:37:32.677Z,0.5
2019-03-18T04:38:44.881Z,0.4
2019-03-18T04:39:57.071Z,0.4
2019-03-18T04:41:09.264Z,0.3
2019-03-18T04:42:21.453Z,0.5
2019-03-18T04:43:33.065Z,0.4
2019-03-18T04:44:45.850Z,0.3
2019-03-18T04:45:58.042Z,0.4
2019-03-18T04:47:10.228Z,0.3
2019-03-18T04:48:22.425Z,0.3
2019-03-18T04:49:34.626Z,0.4
2019-03-18T04:50:46.814Z,0.4
2019-03-18T04:51:59.009Z,0.3
2019-03-18T04:53:11.026Z,0.3
2019-03-18T04:54:23.398Z,0.4
2019-03-18T04:55:35.585Z,0.4
2019-03-18T04:56:47.789Z,0.3
2019-03-18T04:58:00.007Z,0.4
2019-03-18T04:59:12.369Z,0.3
2019-03-18T05:00:24.378Z,0.3
2019-03-18T05:01:36.567Z,0.3
2019-03-18T05:02:48.755Z,0.3
2019-03-18T05:04:00.943Z,0.3
2019-03-18T05:05:13.014Z,0.3
2019-03-18T05:06:25.338Z,0.3
2019-03-18T05:07:37.529Z,0.4
2019-03-18T05:08:49.724Z,0.4
2019-03-18T05:10:01.000Z,0.3
2019-03-18T05:11:14.114Z,0.3
2019-03-18T05:12:26.305Z,0.4
2019-03-18T05:13:38.502Z,0.3
2019-03-18T05:14:50.708Z,0.3
2019-03-18T05:16:02.892Z,0.2
2019-03-18T05:17:15.080Z,0.3
2019-03-18T05:18:27.284Z,0.4
2019-03-18T05:19:39.474Z,0.3
2019-03-18T05:20:51.668Z,0.4
2019-03-18T05:22:03.855Z,0.3
2019-03-18T05:23:16.060Z,0.5
2019-03-18T05:24:28.250Z,0.3
2019-03-18T05:25:40.446Z,0.3
2019-03-18T05:26:52.634Z,0.3
2019-03-18T05:28:04.827Z,0.3
2019-03-18T05:29:17.025Z,0.3
2019-03-18T05:30:29.221Z,0.4
2019-03-18T05:31:41.412Z,0.3
2019-03-18T05:32:53.608Z,0.4
2019-03-18T05:34:05.801Z,0.3
2019-03-18T05:35:17.992Z,0.4
2019-03-18T05:46:07.737Z,0.3
2019-03-18T05:47:19.932Z,0.4
2019-03-18T05:48:32.132Z,0.3
2019-03-18T05:49:44.324Z,0.3
2019-03-18T05:50:56.524Z,0.3
2019-03-18T05:52:08.716Z,0.4
2019-03-18T05:53:20.904Z,0.3
2019-03-18T05:54:33.103Z,0.3
2019-03-18T05:55:45.293Z,0.2
2019-03-18T05:56:57.489Z,0.3
2019-03-18T05:58:09.067Z,0.4
2019-03-18T05:59:21.874Z,0.3
2019-03-18T06:01:46.265Z,0.5
2019-03-18T06:02:58.453Z,0.3
2019-03-18T06:04:10.064Z,0.4
2019-03-18T06:05:22.840Z,0.3
2019-03-18T06:06:35.049Z,0.3
2019-03-18T06:07:47.242Z,0.3
2019-03-18T06:08:59.444Z,0.3
2019-03-18T06:10:11.621Z,0.3
2019-03-18T06:11:23.815Z,0.4
2019-03-18T06:13:48.218Z,0.3
2019-03-18T06:15:00.400Z,0.3
2019-03-18T06:16:12.589Z,0.4
2019-03-18T06:17:24.782Z,0.3
2019-03-18T06:18:36.975Z,0.4
2019-03-18T06:19:49.173Z,0.3
2019-03-18T06:21:01.369Z,0.3
2019-03-18T06:22:13.558Z,0.3
2019-03-18T06:23:25.753Z,0.4
2019-03-18T06:24:37.944Z,0.4
2019-03-18T06:25:50.141Z,0.3
2019-03-18T06:27:02.339Z,0.3
2019-03-18T06:28:14.057Z,0.3
2019-03-18T06:29:26.727Z,0.5
2019-03-18T06:30:38.918Z,0.5
2019-03-18T06:31:51.114Z,0.3
2019-03-18T06:33:03.305Z,0.3
2019-03-18T06:34:15.532Z,0.3
2019-03-18T06:35:27.696Z,0.3
2019-03-18T06:36:39.891Z,0.3
2019-03-18T06:37:52.086Z,0.3
2019-03-18T06:39:04.282Z,0.3
2019-03-18T06:40:16.047Z,0.3
2019-03-18T06:41:28.664Z,0.3
2019-03-18T06:42:40.881Z,0.4
2019-03-18T06:43:53.054Z,0.4
2019-03-18T06:45:05.248Z,0.3
2019-03-18T06:46:17.446Z,0.4
2019-03-18T06:47:29.635Z,0.4
2019-03-18T06:48:41.832Z,0.3
2019-03-18T06:49:54.028Z,0.4
2019-03-18T06:51:06.217Z,0.3
2019-03-18T06:52:18.041Z,0.5
2019-03-18T06:53:30.605Z,0.4
2019-03-18T06:54:42.791Z,0.4
2019-03-18T06:55:54.986Z,0.4
2019-03-18T06:57:07.184Z,0.4
2019-03-18T06:58:19.381Z,0.4
2019-03-18T06:59:31.575Z,0.5
2019-03-18T07:01:55.964Z,0.5
2019-03-18T07:03:08.156Z,0.3
2019-03-18T07:04:20.355Z,0.4
2019-03-18T07:05:32.551Z,0.4
2019-03-18T07:06:44.737Z,0.4
2019-03-18T07:07:56.937Z,0.4
2019-03-18T07:09:09.125Z,0.3
2019-03-18T07:10:21.350Z,0.4
2019-03-18T07:11:33.514Z,0.4
2019-03-18T07:12:45.705Z,0.5
2019-03-18T07:13:57.903Z,0.5
2019-03-18T07:15:10.096Z,0.6
2019-03-18T07:16:22.029Z,0.6
2019-03-18T07:17:34.488Z,0.5
2019-03-18T07:18:46.676Z,0.6
2019-03-18T07:19:58.872Z,0.6
2019-03-18T07:21:11.057Z,0.6
2019-03-18T07:22:23.263Z,0.5
2019-03-18T07:23:35.453Z,0.4
2019-03-18T07:24:47.650Z,0.4
2019-03-18T07:25:59.084Z,0.6
2019-03-18T07:27:12.044Z,0.5
2019-03-18T07:28:24.228Z,0.5
2019-03-18T07:29:36.431Z,0.7
2019-03-18T07:30:48.627Z,0.6
2019-03-18T07:32:00.818Z,0.5
2019-03-18T07:33:13.015Z,0.8
2019-03-18T07:34:25.020Z,0.4
2019-03-18T07:35:37.408Z,0.6
2019-03-18T07:36:49.593Z,0.5
2019-03-18T07:38:01.799Z,0.7
2019-03-18T07:39:13.987Z,0.5
2019-03-18T07:40:26.176Z,0.7
2019-03-18T07:41:38.376Z,0.5
2019-03-18T07:42:50.566Z,0.6
2019-03-18T07:44:02.772Z,0.7
2019-03-18T07:45:14.961Z,0.6
2019-03-18T07:46:27.156Z,0.7
2019-03-18T07:47:39.360Z,0.6
2019-03-18T07:48:51.055Z,0.6
2019-03-18T07:50:03.750Z,0.7
2019-03-18T07:51:15.933Z,0.7
2019-03-18T07:52:28.139Z,1.1
2019-03-18T07:53:40.335Z,0.8
2019-03-18T07:56:04.725Z,0.7
2019-03-18T07:57:16.916Z,0.6
2019-03-18T07:58:29.115Z,0.7
2019-03-18T07:59:41.309Z,0.5
2019-03-18T08:00:53.498Z,0.7
2019-03-18T08:02:05.703Z,0.8
2019-03-18T08:03:17.889Z,0.7
2019-03-18T08:04:30.092Z,0.6
2019-03-18T08:05:42.278Z,0.7
2019-03-18T08:06:54.485Z,0.6
2019-03-18T08:08:06.673Z,0.7
2019-03-18T08:09:18.865Z,0.7
2019-03-18T08:10:31.067Z,0.6
2019-03-18T08:11:43.258Z,0.6
2019-03-18T08:12:55.045Z,0.8
2019-03-18T08:14:07.065Z,0.7
2019-03-18T08:15:19.849Z,0.6
2019-03-18T08:16:32.041Z,0.5
2019-03-18T08:17:44.233Z,0.6
2019-03-18T08:20:08.633Z,0.7
2019-03-18T08:22:33.022Z,0.7
2019-03-18T08:23:45.216Z,0.6
2019-03-18T08:24:57.402Z,0.8
2019-03-18T08:26:09.601Z,0.8
2019-03-18T08:27:21.800Z,0.8
2019-03-18T08:28:33.997Z,0.8
2019-03-18T08:29:46.193Z,0.7
2019-03-18T08:30:58.396Z,0.5
2019-03-18T08:32:10.602Z,0.8
2019-03-18T08:33:22.775Z,0.7
2019-03-18T08:34:34.974Z,1
2019-03-18T08:35:47.161Z,0.7
2019-03-18T08:36:59.363Z,0.9
2019-03-18T08:38:11.557Z,1
2019-03-18T08:39:23.754Z,1.3
2019-03-18T08:40:35.095Z,1.1
2019-03-18T08:41:48.151Z,0.9
2019-03-18T08:43:00.334Z,0.9
2019-03-18T08:44:12.531Z,1
2019-03-18T08:45:24.729Z,0.8
2019-03-18T08:46:36.932Z,0.8
2019-03-18T08:47:49.114Z,0.9
2019-03-18T08:50:13.514Z,1
2019-03-18T08:51:25.702Z,0.9
2019-03-18T08:52:37.928Z,1
2019-03-18T08:53:50.009Z,0.8
2019-03-18T08:55:02.293Z,0.6
2019-03-18T08:56:14.484Z,1.2
2019-03-18T08:57:26.686Z,0.7
2019-03-18T08:58:38.879Z,0.8
2019-03-18T08:59:51.071Z,0.9
2019-03-18T09:02:15.473Z,0.9
2019-03-18T09:03:27.656Z,1.1
2019-03-18T09:04:39.848Z,0.8
2019-03-18T09:05:52.044Z,0.8
2019-03-18T09:07:04.245Z,0.6
2019-03-18T09:08:16.441Z,1
2019-03-18T09:09:28.632Z,0.6
2019-03-18T09:10:40.821Z,0.9
2019-03-18T09:11:53.026Z,0.7
2019-03-18T09:13:05.214Z,0.7
2019-03-18T09:14:17.438Z,0.9
2019-03-18T09:15:29.613Z,0.9
2019-03-18T09:16:41.805Z,0.7
2019-03-18T09:17:54.031Z,1.2
2019-03-18T09:19:06.217Z,1
2019-03-18T09:20:18.403Z,0.7
2019-03-18T09:21:30.584Z,0.9
2019-03-18T09:22:42.843Z,0.7
2019-03-18T09:23:54.971Z,0.9
2019-03-18T09:25:07.171Z,1
2019-03-18T09:26:19.367Z,0.9
2019-03-18T09:27:31.562Z,0.8
2019-03-18T09:28:43.762Z,1
2019-03-18T09:29:55.095Z,1
2019-03-18T09:31:08.148Z,1.1
2019-03-18T09:32:20.339Z,0.9
2019-03-18T09:33:32.544Z,1.3
2019-03-18T09:34:44.732Z,1.3
2019-03-18T09:35:56.928Z,1.4
2019-03-18T09:37:09.123Z,1.4
2019-03-18T09:38:21.325Z,1.5
2019-03-18T09:39:33.516Z,1.3
2019-03-18T09:40:45.731Z,1.6
2019-03-18T09:41:57.904Z,1.5
2019-03-18T09:43:10.101Z,2.1
2019-03-18T09:44:22.297Z,2.3
2019-03-18T09:45:34.495Z,2.6
2019-03-18T09:46:46.687Z,2.3
2019-03-18T09:47:58.892Z,2.4
2019-03-18T09:50:23.002Z,2.5
2019-03-18T09:51:35.470Z,2.4
2019-03-18T09:52:47.665Z,2.6
2019-03-18T09:53:59.852Z,2.6
2019-03-18T09:55:12.005Z,2.1
2019-03-18T09:56:24.243Z,2.9
2019-03-18T09:57:36.446Z,3
2019-03-18T09:58:48.063Z,2.2
2019-03-18T10:00:00.840Z,2.4
2019-03-18T10:01:13.033Z,2.6
2019-03-18T10:02:25.223Z,2.8
2019-03-18T10:03:37.042Z,2.7
2019-03-18T10:04:49.618Z,2.5
2019-03-18T10:06:01.817Z,2.4
2019-03-18T10:07:14.000Z,2.8
2019-03-18T10:08:26.202Z,2.5
2019-03-18T10:09:38.395Z,2.7
2019-03-18T10:10:50.000Z,2.6
2019-03-18T10:12:02.794Z,2.6
2019-03-18T10:14:27.174Z,2.7
2019-03-18T10:15:39.377Z,2.5
2019-03-18T10:16:51.571Z,2.9
2019-03-18T10:18:03.772Z,2.8
2019-03-18T10:19:15.096Z,2.9
2019-03-18T10:20:28.155Z,2.9
2019-03-18T10:21:40.362Z,2.8
2019-03-18T10:22:52.550Z,2.4
2019-03-18T10:24:04.741Z,2.8
2019-03-18T10:25:16.943Z,3.1
2019-03-18T10:26:29.136Z,2.7
2019-03-18T10:27:41.331Z,3
2019-03-18T10:28:53.522Z,2.7
2019-03-18T10:30:05.721Z,3
2019-03-18T10:31:17.913Z,3
2019-03-18T10:32:30.115Z,3.3
2019-03-18T10:33:42.032Z,2.7
2019-03-18T10:34:54.498Z,3.2
2019-03-18T10:36:06.695Z,3
2019-03-18T10:37:18.902Z,2.9
2019-03-18T10:38:31.085Z,2.7
2019-03-18T10:39:43.286Z,2.7
2019-03-18T10:40:55.472Z,2.8
2019-03-18T10:42:07.675Z,2.9
2019-03-18T10:43:19.864Z,3.1
2019-03-18T10:44:32.059Z,2.9
2019-03-18T10:45:44.025Z,2.7
2019-03-18T10:46:56.458Z,2.9
2019-03-18T10:48:08.662Z,2.9
2019-03-18T10:50:33.041Z,3
2019-03-18T10:51:45.233Z,3.1
2019-03-18T10:52:57.435Z,2.8
2019-03-18T10:54:09.659Z,2.8
2019-03-18T10:55:21.822Z,2.8
2019-03-18T10:56:34.002Z,3
2019-03-18T10:57:46.021Z,3
2019-03-18T10:58:58.406Z,3
2019-03-18T11:00:10.061Z,2.6
2019-03-18T11:01:22.800Z,3
2019-03-18T11:02:35.002Z,3
2019-03-18T11:03:47.018Z,3.3
2019-03-18T11:04:59.385Z,2.6
2019-03-18T11:06:11.584Z,3.1
2019-03-18T11:07:23.783Z,2.9
2019-03-18T11:08:35.974Z,3.4
2019-03-18T11:09:48.165Z,3.3
2019-03-18T11:11:00.356Z,3.1
2019-03-18T11:12:12.558Z,3.3
2019-03-18T11:13:24.752Z,3.3
2019-03-18T11:14:36.949Z,3.3
2019-03-18T11:15:49.149Z,2.8
2019-03-18T11:17:01.341Z,3.1
2019-03-18T11:18:13.532Z,3.1
2019-03-18T11:19:25.729Z,3
2019-03-18T11:20:37.946Z,3.3
2019-03-18T11:21:50.117Z,3.2
2019-03-18T11:23:02.031Z,3.1
2019-03-18T11:24:14.511Z,3.2
2019-03-18T11:25:26.706Z,3.3
2019-03-18T11:26:38.905Z,3
2019-03-18T11:27:51.095Z,2.9
2019-03-18T11:29:03.293Z,3.6
2019-03-18T11:30:15.490Z,3.2
2019-03-18T11:31:27.686Z,3.3
2019-03-18T11:32:39.878Z,3.2
2019-03-18T11:33:52.072Z,3
2019-03-18T11:35:04.273Z,3.5
2019-03-18T11:36:16.464Z,3.5
2019-03-18T11:37:28.655Z,3
2019-03-18T11:38:40.873Z,3.1
2019-03-18T11:39:53.049Z,3.9
2019-03-18T11:41:05.252Z,3.5
2019-03-18T11:42:17.445Z,3.2
2019-03-18T11:43:29.635Z,3
2019-03-18T11:44:41.083Z,3.7
2019-03-18T11:45:54.032Z,3.1
2019-03-18T11:47:06.022Z,3.2
2019-03-18T11:48:18.427Z,2.9
2019-03-18T11:49:30.620Z,3.3
2019-03-18T11:50:42.815Z,3.6
2019-03-18T11:51:55.000Z,3
2019-03-18T11:53:07.203Z,3.3
2019-03-18T11:54:19.397Z,3.2
2019-03-18T11:55:31.597Z,2.9
2019-03-18T11:56:43.789Z,3
2019-03-18T11:57:55.981Z,3.1
2019-03-18T11:59:08.174Z,3.5
2019-03-18T12:00:20.368Z,3.6
2019-03-18T12:02:44.766Z,3.3
2019-03-18T12:03:56.954Z,3.5
2019-03-18T12:05:09.152Z,3
2019-03-18T12:06:21.345Z,3.3
2019-03-18T12:07:33.054Z,3.6
2019-03-18T12:08:45.074Z,3.2
2019-03-18T12:09:57.943Z,3.2
2019-03-18T12:11:10.136Z,3.6
2019-03-18T12:12:22.327Z,3.2
2019-03-18T12:13:34.537Z,3.4
2019-03-18T12:15:58.919Z,3.2
2019-03-18T12:17:11.011Z,3.5
2019-03-18T12:18:23.305Z,3
2019-03-18T12:19:35.516Z,3.4
2019-03-18T12:20:47.704Z,3.6
2019-03-18T12:21:59.902Z,3.2
2019-03-18T12:23:12.092Z,3.6
2019-03-18T12:24:24.315Z,3.3
2019-03-18T12:25:36.480Z,3.1
2019-03-18T12:26:48.672Z,3.5
2019-03-18T12:28:00.878Z,3.4
2019-03-18T12:29:13.079Z,3.1
2019-03-18T12:30:25.002Z,3.4
2019-03-18T12:31:37.459Z,3.1
2019-03-18T12:32:49.653Z,3.4
2019-03-18T12:34:01.853Z,2.8
2019-03-18T12:35:14.039Z,2.9
2019-03-18T12:36:26.023Z,3.3
2019-03-18T12:37:38.442Z,2.9
2019-03-18T12:38:50.063Z,3.1
2019-03-18T12:40:02.823Z,3.4
2019-03-18T12:41:15.018Z,3.2
2019-03-18T12:42:27.222Z,3
2019-03-18T12:43:39.421Z,3.5
2019-03-18T12:44:51.610Z,3.3
2019-03-18T12:46:03.807Z,3.2
2019-03-18T12:47:15.009Z,3.4
2019-03-18T12:48:28.019Z,3.1
2019-03-18T12:49:40.390Z,3.3
2019-03-18T12:50:52.582Z,3
2019-03-18T12:52:04.078Z,3.2
2019-03-18T12:53:16.982Z,3.5
2019-03-18T12:54:29.170Z,3.2
2019-03-18T12:55:41.363Z,3
2019-03-18T12:56:53.056Z,3.3
2019-03-18T12:58:05.754Z,2.9
2019-03-18T12:59:17.000Z,3
2019-03-18T13:00:30.150Z,3.2
2019-03-18T13:01:42.347Z,3.1
2019-03-18T13:02:54.543Z,3.2
2019-03-18T13:04:06.000Z,3.2
2019-03-18T13:05:18.968Z,2.9
2019-03-18T13:06:31.169Z,3
2019-03-18T13:07:43.332Z,3.2
2019-03-18T13:08:55.560Z,2.9
2019-03-18T13:10:07.072Z,3.3
2019-03-18T13:11:19.091Z,3
2019-03-18T13:12:32.001Z,3.2
2019-03-18T13:13:44.030Z,3.1
2019-03-18T13:14:56.503Z,3.3
2019-03-18T13:16:08.688Z,3.3
2019-03-18T13:17:20.887Z,3.3
2019-03-18T13:18:33.008Z,3.1
2019-03-18T13:19:45.283Z,2.7
2019-03-18T13:20:57.477Z,3.2
2019-03-18T13:22:09.678Z,3
2019-03-18T13:23:21.872Z,3
2019-03-18T13:24:34.066Z,2.7
2019-03-18T13:25:46.256Z,2.6
2019-03-18T13:26:58.452Z,3.2
2019-03-18T13:28:10.652Z,2.7
2019-03-18T13:29:22.851Z,2.9
2019-03-18T13:30:35.041Z,2.5
2019-03-18T13:31:47.240Z,2.9
2019-03-18T13:32:59.437Z,3
2019-03-18T13:34:11.632Z,2.8
2019-03-18T13:35:23.878Z,2.7
2019-03-18T13:36:36.022Z,3
2019-03-18T13:37:48.210Z,2.5
2019-03-18T13:39:00.411Z,2.8
2019-03-18T13:40:12.602Z,2.4
2019-03-18T13:41:24.799Z,2.9
2019-03-18T13:42:37.002Z,2.6
2019-03-18T13:43:49.194Z,2.5
2019-03-18T13:45:01.389Z,2.3
2019-03-18T13:46:13.579Z,2.9
2019-03-18T13:47:25.779Z,2.7
2019-03-18T13:48:37.970Z,2.6
2019-03-18T13:49:50.172Z,2.7
2019-03-18T13:51:02.369Z,2.4
2019-03-18T13:52:14.572Z,2.6
2019-03-18T13:53:26.757Z,2.7
2019-03-18T13:54:38.954Z,2.3
2019-03-18T13:55:51.148Z,2.6
2019-03-18T13:57:03.352Z,2.7
2019-03-18T13:58:15.571Z,2.3
2019-03-18T13:59:27.742Z,2.6
2019-03-18T14:00:39.934Z,2.9
2019-03-18T14:01:52.132Z,3.1
2019-03-18T14:03:04.331Z,2.7
2019-03-18T14:04:16.520Z,2.7
2019-03-18T14:05:28.714Z,2.8
2019-03-18T14:06:40.912Z,2.7
2019-03-18T14:07:53.099Z,2.5
2019-03-18T14:09:05.297Z,2.6
2019-03-18T14:10:17.496Z,2.8
2019-03-18T14:11:29.692Z,2.6
2019-03-18T14:12:41.914Z,2.9
2019-03-18T14:13:54.085Z,2.9
2019-03-18T14:15:06.278Z,2.9
2019-03-18T14:16:18.531Z,3.1
2019-03-18T14:17:30.663Z,3
2019-03-18T14:18:42.860Z,3.4
2019-03-18T14:19:55.057Z,2.8
2019-03-18T14:21:07.251Z,2.8
2019-03-18T14:22:19.449Z,2.9
2019-03-18T14:23:31.640Z,2.6
2019-03-18T14:24:43.848Z,3
2019-03-18T14:25:56.031Z,2.8
2019-03-18T14:27:08.229Z,2.8
2019-03-18T14:28:20.426Z,2.6
2019-03-18T14:29:32.621Z,2.8
2019-03-18T14:30:44.815Z,2.8
2019-03-18T14:31:57.006Z,2.4
2019-03-18T14:33:09.209Z,2.9
2019-03-18T14:34:21.400Z,2.8
2019-03-18T14:35:33.598Z,2.4
2019-03-18T14:36:45.796Z,2.7
2019-03-18T14:37:57.098Z,2.7
2019-03-18T14:40:22.380Z,2.7
2019-03-18T14:41:34.572Z,2.6
2019-03-18T14:42:46.767Z,2.5
2019-03-18T14:43:58.975Z,2.3
2019-03-18T14:45:11.164Z,2.9
2019-03-18T14:46:23.356Z,2.4
2019-03-18T14:47:35.554Z,2.5
2019-03-18T14:51:12.147Z,2.7
2019-03-18T14:52:24.033Z,2.3
2019-03-18T14:53:36.528Z,2.7
2019-03-18T14:54:48.072Z,2.3
2019-03-18T14:56:00.009Z,2.5
2019-03-18T14:57:13.118Z,2.7
2019-03-18T14:58:25.031Z,2.5
2019-03-18T14:59:37.510Z,2.4
2019-03-18T15:00:49.713Z,2.3
2019-03-18T15:02:01.904Z,2.4
2019-03-18T15:03:14.094Z,2.9
2019-03-18T15:04:26.285Z,2.6
2019-03-18T15:05:38.502Z,2.3
2019-03-18T15:06:50.677Z,2.6
2019-03-18T15:08:02.889Z,2.7
2019-03-18T15:09:15.074Z,2.5
2019-03-18T15:10:27.027Z,2.8
2019-03-18T15:11:39.477Z,2.4
2019-03-18T15:14:03.009Z,2.7
2019-03-18T15:15:16.005Z,2.2
2019-03-18T15:16:28.245Z,2.6
2019-03-18T15:17:40.452Z,2.6
2019-03-18T15:18:52.643Z,3
2019-03-18T15:20:04.083Z,2.3
2019-03-18T15:21:17.035Z,2.3
2019-03-18T15:22:29.234Z,2.6
2019-03-18T15:24:53.618Z,2.3
2019-03-18T15:26:05.821Z,2.2
2019-03-18T15:27:18.024Z,2.5
2019-03-18T15:28:30.203Z,2.4
2019-03-18T15:29:42.400Z,2.3
2019-03-18T15:30:54.601Z,2.2
2019-03-18T15:32:06.791Z,2.1
2019-03-18T15:33:18.985Z,2.5
2019-03-18T15:34:31.183Z,2.2
2019-03-18T15:35:43.371Z,2.4
2019-03-18T15:38:07.764Z,2.3
2019-03-18T15:39:19.967Z,2.2
2019-03-18T15:40:32.154Z,2.3
2019-03-18T15:41:44.362Z,2.5
2019-03-18T15:42:56.546Z,2.3
2019-03-18T15:44:08.746Z,2.2
2019-03-18T15:45:20.935Z,2.2
2019-03-18T15:46:33.135Z,1.9
2019-03-18T15:47:45.330Z,2.2
2019-03-18T15:48:57.525Z,2.3
2019-03-18T15:50:09.726Z,2.4
2019-03-18T15:51:21.922Z,2.2
2019-03-18T15:52:34.117Z,2.3
2019-03-18T15:53:46.310Z,2.5
2019-03-18T15:54:58.504Z,2.2
2019-03-18T15:56:10.070Z,2.2
2019-03-18T15:57:22.896Z,2.2
2019-03-18T15:58:35.093Z,2.5
2019-03-18T15:59:47.282Z,2.3
2019-03-18T16:00:59.493Z,2.3
2019-03-18T16:02:11.673Z,2.1
2019-03-18T16:03:23.866Z,2.3
2019-03-18T16:04:36.063Z,2.1
2019-03-18T16:05:48.267Z,2.2
2019-03-18T16:07:00.455Z,2.3
2019-03-18T16:08:12.653Z,2.5
2019-03-18T16:09:24.852Z,2.2
2019-03-18T16:10:37.041Z,2.3
2019-03-18T16:11:49.255Z,2.2
2019-03-18T16:13:01.444Z,2.1
2019-03-18T16:15:25.824Z,2.3
2019-03-18T16:16:38.028Z,2
2019-03-18T16:17:50.218Z,2.1
2019-03-18T16:19:02.434Z,2.2
2019-03-18T16:20:14.604Z,1.9
2019-03-18T16:21:26.810Z,2
2019-03-18T16:22:38.998Z,2.4
2019-03-18T16:23:51.200Z,2.3
2019-03-18T16:25:03.003Z,2.1
2019-03-18T16:26:15.594Z,2.2
2019-03-18T16:27:27.792Z,2.4
2019-03-18T16:28:39.975Z,2.1
2019-03-18T16:29:52.171Z,2.1
2019-03-18T16:31:04.371Z,2.2
2019-03-18T16:32:16.582Z,2.6
2019-03-18T16:33:28.756Z,2.1
2019-03-18T16:34:40.956Z,1.9
2019-03-18T16:35:53.150Z,2.2
2019-03-18T16:37:05.348Z,1.9
2019-03-18T16:38:17.542Z,2.1
2019-03-18T16:39:29.737Z,2
2019-03-18T16:40:42.134Z,2.1
2019-03-18T16:41:54.017Z,2.1
2019-03-18T16:43:06.332Z,2.3
2019-03-18T16:44:18.527Z,2.2
2019-03-18T16:45:30.728Z,2.2
2019-03-18T16:46:42.925Z,2
2019-03-18T16:47:55.101Z,1.8
2019-03-18T16:49:07.307Z,2.3
2019-03-18T16:51:31.688Z,2
2019-03-18T16:52:43.887Z,2.1
2019-03-18T16:53:56.086Z,2
2019-03-18T16:55:08.284Z,2.2
2019-03-18T16:56:20.466Z,2
2019-03-18T16:57:32.666Z,2
2019-03-18T16:58:44.853Z,2
2019-03-18T16:59:57.050Z,2.2
2019-03-18T17:01:09.236Z,2
2019-03-18T17:02:21.437Z,1.8
2019-03-18T17:03:33.634Z,2
2019-03-18T17:04:45.819Z,1.9
2019-03-18T17:05:58.020Z,2.1
2019-03-18T17:07:10.209Z,2
2019-03-18T17:08:22.040Z,2
2019-03-18T17:09:34.597Z,1.9
2019-03-18T17:10:46.809Z,2.1
2019-03-18T17:13:11.017Z,2.2
2019-03-18T17:14:23.369Z,1.7
2019-03-18T17:15:35.558Z,1.9
2019-03-18T17:16:47.761Z,1.9